Luminous Kobe-2 — JJ3868 — position and weather

sailwx.info

Track history (hours):
 
Tides and Currents Weather Stations Pressure Air Temp Water Temp Dewpoint Dewpoint Depression Visibility Wind Speed Wind Dir Waves Ship Positions

Luminous Kobe-2

Last reported at 2017-Jan-24 12:32 UTC. Time now 2017-Jan-24 13:15 UTC.
Position N 34°41' E 135°11'.

Length 105 m; draft 4.5 m.

Type: Passenger vessel. MMSI: 431000469.

Date/timePositionNaut miles runAvg speedWind from/ knotsBaromVisibWave heightAir tempDewpointWater temp
2017-Jan-24 12:32N 34°41' E 135°11'6 6.2
2017-Jan-24 11:33N 34°36' E 135°07'1 1.0
2017-Jan-24 10:33N 34°37' E 135°07'5 5.3
2017-Jan-24 09:33N 34°41' E 135°11'5 4.6
2017-Jan-24 08:33N 34°37' E 135°08'5 4.5
2017-Jan-24 07:32N 34°41' E 135°11'0 0.0
2017-Jan-24 06:26N 34°41' E 135°11'0 0.0
2017-Jan-24 05:32N 34°41' E 135°11'2 2.5
2017-Jan-24 04:33N 34°38' E 135°11'2 2.2
2017-Jan-24 03:33N 34°37' E 135°13'4 3.8
2017-Jan-24 02:33N 34°41' E 135°11'0 0.0
2017-Jan-24 01:33N 34°41' E 135°11'0 0.0
2017-Jan-24 00:33N 34°41' E 135°11'0 0.0
2017-Jan-23 23:33N 34°41' E 135°11'0 0.0
2017-Jan-23 22:33N 34°41' E 135°11'0 0.0
2017-Jan-23 21:27N 34°41' E 135°11'0 0.0
2017-Jan-23 20:27N 34°41' E 135°11'0 0.0
2017-Jan-23 19:33N 34°41' E 135°11'0 0.0
2017-Jan-23 18:33N 34°41' E 135°11'0 0.0
2017-Jan-23 17:33N 34°41' E 135°11'0 0.0
2017-Jan-23 16:27N 34°41' E 135°11'0 0.0
2017-Jan-23 15:33N 34°41' E 135°11'0 0.0
2017-Jan-23 14:33N 34°41' E 135°11'0 0.0
2017-Jan-23 13:33N 34°41' E 135°11'0 0.0
2017-Jan-23 12:33N 34°41' E 135°11'6 6.1
2017-Jan-23 11:33N 34°36' E 135°07'1 1.4
2017-Jan-23 10:33N 34°37' E 135°06'6 6.0
2017-Jan-23 09:33N 34°41' E 135°11'5 4.7
2017-Jan-23 08:33N 34°37' E 135°08'5 4.0
2017-Jan-23 07:22N 34°41' E 135°11'0 0.0
2017-Jan-23 06:28N 34°41' E 135°11'0 0.0
2017-Jan-23 05:28N 34°41' E 135°11'2 2.5
2017-Jan-23 04:33N 34°39' E 135°11'3 2.5
2017-Jan-23 03:34N 34°37' E 135°13'4 3.8
2017-Jan-23 02:24N 34°41' E 135°11'0 0.0
2017-Jan-23 01:30N 34°41' E 135°11'0 0.0
2017-Jan-23 00:30N 34°41' E 135°11'0 0.0
2017-Jan-22 23:30N 34°41' E 135°11'0 0.0
2017-Jan-22 22:30N 34°41' E 135°11'0 0.0
2017-Jan-22 21:30N 34°41' E 135°11'0 0.0
2017-Jan-22 20:18N 34°41' E 135°11'0 0.0
2017-Jan-22 19:30N 34°41' E 135°11'0 0.0
2017-Jan-22 18:24N 34°41' E 135°11'0 0.0
2017-Jan-22 17:30N 34°41' E 135°11'0 0.0
2017-Jan-22 16:30N 34°41' E 135°11'0 0.0
2017-Jan-22 15:30N 34°41' E 135°11'0 0.0
2017-Jan-22 14:30N 34°41' E 135°11'0 0.0
2017-Jan-22 13:24N 34°41' E 135°11'0 0.0
2017-Jan-22 12:30N 34°41' E 135°11'6 6.2
2017-Jan-22 11:33N 34°36' E 135°07'1 1.1
2017-Jan-22 10:33N 34°37' E 135°06'6 5.8
2017-Jan-22 09:30N 34°41' E 135°11'2 1.8
2017-Jan-22 08:33N 34°39' E 135°11'3 2.6
2017-Jan-22 07:33N 34°37' E 135°13'4 3.7
2017-Jan-22 06:29N 34°41' E 135°11'0 0.0
2017-Jan-22 05:29N 34°41' E 135°11'2 1.9
2017-Jan-22 04:33N 34°39' E 135°11'3 2.8
2017-Jan-22 03:33N 34°37' E 135°13'4 4.2
2017-Jan-22 02:31N 34°41' E 135°11'0 0.0
2017-Jan-22 01:25N 34°41' E 135°11'0 0.0
2017-Jan-22 00:31N 34°41' E 135°11'0 0.0
2017-Jan-21 23:31N 34°41' E 135°11'0 0.0
2017-Jan-21 22:25N 34°41' E 135°11'0 0.0
2017-Jan-21 21:31N 34°41' E 135°11'0 0.0
2017-Jan-21 20:31N 34°41' E 135°11'0 0.0
2017-Jan-21 19:31N 34°41' E 135°11'0 0.0
2017-Jan-21 18:31N 34°41' E 135°11'0 0.0
2017-Jan-21 17:31N 34°41' E 135°11'0 0.0
2017-Jan-21 16:19N 34°41' E 135°11'0 0.0
2017-Jan-21 15:31N 34°41' E 135°11'0 0.0
2017-Jan-21 14:31N 34°41' E 135°11'0 0.0
2017-Jan-21 13:31N 34°41' E 135°11'0 0.0
2017-Jan-21 12:31N 34°41' E 135°11'6 5.9
2017-Jan-21 11:33N 34°36' E 135°08'1 1.2
2017-Jan-21 10:33N 34°37' E 135°06'6 5.8
2017-Jan-21 09:31N 34°41' E 135°11'2 2.0
2017-Jan-21 08:33N 34°39' E 135°11'2 2.0
2017-Jan-21 07:33N 34°37' E 135°13'4 3.6
2017-Jan-21 06:32N 34°41' E 135°11'0 0.0
2017-Jan-21 05:32N 34°41' E 135°11'2 2.2
2017-Jan-21 04:33N 34°39' E 135°11'2 2.2
2017-Jan-21 03:33N 34°37' E 135°13'4 3.7
2017-Jan-21 02:31N 34°41' E 135°11'0 0.0
2017-Jan-21 01:31N 34°41' E 135°11'0 0.0
2017-Jan-21 00:31N 34°41' E 135°11'0 0.0
2017-Jan-20 23:31N 34°41' E 135°11'0 0.0
2017-Jan-20 22:31N 34°41' E 135°11'0 0.0
2017-Jan-20 21:31N 34°41' E 135°11'0 0.0
2017-Jan-20 20:31N 34°41' E 135°11'0 0.0
2017-Jan-20 19:31N 34°41' E 135°11'0 0.0
2017-Jan-20 18:31N 34°41' E 135°11'0 0.0
2017-Jan-20 17:25N 34°41' E 135°11'0 0.0
2017-Jan-20 16:31N 34°41' E 135°11'0 0.0
2017-Jan-20 15:31N 34°41' E 135°11'0 0.0
2017-Jan-20 14:31N 34°41' E 135°11'0 0.0
2017-Jan-20 13:25N 34°41' E 135°11'0 0.0
2017-Jan-20 12:25N 34°41' E 135°11'5 6.0
2017-Jan-20 11:33N 34°36' E 135°08'1 1.1
2017-Jan-20 10:33N 34°37' E 135°07'6 5.1
2017-Jan-20 09:28N 34°41' E 135°11'5 5.4
2017-Jan-20 08:33N 34°37' E 135°08'5 4.3
2017-Jan-20 07:26N 34°41' E 135°11'0 0.0
2017-Jan-20 06:32N 34°41' E 135°11'0 0.0
2017-Jan-20 05:32N 34°41' E 135°11'2 2.4
2017-Jan-20 04:33N 34°38' E 135°11'2 1.9
2017-Jan-20 03:33N 34°37' E 135°13'4 3.5
2017-Jan-20 02:30N 34°41' E 135°11'0 0.0
2017-Jan-20 01:30N 34°41' E 135°11'0 0.0
2017-Jan-20 00:30N 34°41' E 135°11'0 0.0
2017-Jan-19 23:24N 34°41' E 135°11'0 0.0
2017-Jan-19 22:30N 34°41' E 135°11'0 0.0
2017-Jan-19 21:30N 34°41' E 135°11'0 0.0
2017-Jan-19 20:24N 34°41' E 135°11'0 0.0
2017-Jan-19 19:24N 34°41' E 135°11'0 0.0
2017-Jan-19 18:24N 34°41' E 135°11'0 0.0
2017-Jan-19 17:18N 34°41' E 135°11'0 0.0
2017-Jan-19 16:30N 34°41' E 135°11'0 0.0
2017-Jan-19 15:30N 34°41' E 135°11'0 0.0
2017-Jan-19 14:30N 34°41' E 135°11'0 0.0
2017-Jan-19 13:30N 34°41' E 135°11'0 0.0
2017-Jan-19 12:24N 34°41' E 135°11'7 7.8
2017-Jan-19 11:33N 34°36' E 135°06'2 1.8
2017-Jan-19 10:33N 34°37' E 135°08'5 4.5
2017-Jan-19 09:31N 34°41' E 135°11'5 4.8
2017-Jan-19 08:33N 34°37' E 135°08'5 4.1
2017-Jan-19 07:26N 34°41' E 135°11'0 0.0
2017-Jan-19 06:32N 34°41' E 135°11'0 0.0
2017-Jan-19 05:32N 34°41' E 135°11'2 2.3
2017-Jan-19 04:33N 34°39' E 135°11'2 2.1
2017-Jan-19 03:34N 34°37' E 135°13'4 3.4
2017-Jan-19 02:27N 34°41' E 135°11'0 0.0
2017-Jan-19 01:27N 34°41' E 135°11'0 0.0
2017-Jan-19 00:33N 34°41' E 135°11'0 0.0
2017-Jan-18 23:33N 34°41' E 135°11'0 0.0
2017-Jan-18 22:15N 34°41' E 135°11'0 0.0
2017-Jan-18 21:27N 34°41' E 135°11'0 0.0
2017-Jan-18 20:33N 34°41' E 135°11'0 0.0
2017-Jan-18 19:27N 34°41' E 135°11'0 0.0
2017-Jan-18 18:27N 34°41' E 135°11'0 0.0
2017-Jan-18 17:21N 34°41' E 135°11'0 0.0
2017-Jan-18 16:33N 34°41' E 135°11'0 0.0
2017-Jan-18 15:33N 34°41' E 135°11'0 0.0
2017-Jan-18 14:33N 34°41' E 135°11'0 0.0
2017-Jan-18 13:15N 34°41' E 135°11'0 0.0
2017-Jan-18 12:33N 34°41' E 135°11'6 5.9
2017-Jan-18 11:33N 34°36' E 135°07'1 1.2
2017-Jan-18 10:33N 34°37' E 135°06'6 5.9
2017-Jan-18 09:32N 34°41' E 135°11'5 4.7
2017-Jan-18 08:33N 34°37' E 135°08'5 4.5
2017-Jan-18 07:32N 34°41' E 135°11'0 0.0
2017-Jan-18 06:32N 34°41' E 135°11'0 0.0
2017-Jan-18 05:32N 34°41' E 135°11'2 2.3
2017-Jan-18 04:33N 34°39' E 135°11'2 2.2
2017-Jan-18 03:33N 34°37' E 135°13'4 3.7
2017-Jan-18 02:32N 34°41' E 135°11'0 0.0
2017-Jan-18 01:32N 34°41' E 135°11'0 0.0
2017-Jan-18 00:26N 34°41' E 135°11'0 0.0
2017-Jan-17 23:32N 34°41' E 135°11'0 0.0
2017-Jan-17 22:32N 34°41' E 135°11'0 0.0
2017-Jan-17 21:32N 34°41' E 135°11'0 0.0
2017-Jan-17 20:32N 34°41' E 135°11'0 0.0
2017-Jan-17 19:32N 34°41' E 135°11'0 0.0
2017-Jan-17 18:32N 34°41' E 135°11'0 0.0
2017-Jan-17 17:32N 34°41' E 135°11'0 0.0
2017-Jan-17 16:32N 34°41' E 135°11'0 0.0
2017-Jan-17 15:26N 34°41' E 135°11'0 0.0
2017-Jan-17 14:32N 34°41' E 135°11'0 0.0
2017-Jan-17 13:32N 34°41' E 135°11'0 0.0
2017-Jan-17 12:32N 34°41' E 135°11'6 5.6
2017-Jan-17 11:33N 34°36' E 135°08'2 1.7
2017-Jan-17 10:33N 34°37' E 135°06'6 5.7
2017-Jan-17 09:29N 34°41' E 135°11'5 5.1
2017-Jan-17 08:33N 34°37' E 135°08'5 4.7
2017-Jan-17 07:33N 34°41' E 135°11'0 0.0
2017-Jan-17 06:33N 34°41' E 135°11'0 0.0
2017-Jan-17 05:33N 34°41' E 135°11'2 2.1
2017-Jan-17 04:33N 34°39' E 135°11'2 2.1
2017-Jan-17 03:33N 34°37' E 135°13'4 3.6
2017-Jan-17 02:32N 34°41' E 135°11'0 0.0
2017-Jan-17 01:32N 34°41' E 135°11'0 0.0
2017-Jan-17 00:32N 34°41' E 135°11'0 0.0
2017-Jan-16 23:26N 34°41' E 135°11'0 0.0
2017-Jan-16 22:32N 34°41' E 135°11'0 0.0
2017-Jan-16 21:20N 34°41' E 135°11'0 0.0
2017-Jan-16 20:32N 34°41' E 135°11'0 0.0
2017-Jan-16 19:32N 34°41' E 135°11'0 0.0
2017-Jan-16 18:32N 34°41' E 135°11'0 0.0
2017-Jan-16 17:32N 34°41' E 135°11'0 0.0
2017-Jan-16 16:32N 34°41' E 135°11'0 0.0
2017-Jan-16 15:32N 34°41' E 135°11'0 0.0
2017-Jan-16 14:08N 34°41' E 135°11'0 0.0
2017-Jan-16 13:32N 34°41' E 135°11'0 0.0
2017-Jan-16 12:32N 34°41' E 135°11'6 6.6
2017-Jan-16 11:34N 34°36' E 135°07'1 1.1
2017-Jan-16 10:33N 34°37' E 135°06'6 5.9
2017-Jan-16 09:33N 34°41' E 135°11'5 4.6
2017-Jan-16 08:33N 34°37' E 135°08'5 4.6
2017-Jan-16 07:33N 34°41' E 135°11'0 0.0
2017-Jan-16 06:27N 34°41' E 135°11'0 0.0
2017-Jan-16 05:27N 34°41' E 135°11'2 2.5
2017-Jan-16 04:33N 34°39' E 135°11'2 2.3
2017-Jan-16 03:33N 34°37' E 135°13'4 3.7
2017-Jan-16 02:29N 34°41' E 135°11'0 0.0
2017-Jan-16 01:29N 34°41' E 135°11'0 0.0
2017-Jan-16 00:29N 34°41' E 135°11'0 0.0
2017-Jan-15 23:29N 34°41' E 135°11'0 0.0
2017-Jan-15 22:11N 34°41' E 135°11'0 0.0
2017-Jan-15 21:29N 34°41' E 135°11'0 0.0
2017-Jan-15 20:29N 34°41' E 135°11'0 0.0
2017-Jan-15 19:29N 34°41' E 135°11'0 0.0
2017-Jan-15 18:29N 34°41' E 135°11'0 0.0
2017-Jan-15 17:29N 34°41' E 135°11'0 0.0
2017-Jan-15 16:29N 34°41' E 135°11'0 0.0
2017-Jan-15 15:23N 34°41' E 135°11'0 0.0
2017-Jan-15 14:29N 34°41' E 135°11'0 0.0
2017-Jan-15 13:17N 34°41' E 135°11'0 0.0
2017-Jan-15 12:23N 34°41' E 135°11'6 6.9
2017-Jan-15 11:34N 34°36' E 135°07'1 1.3
2017-Jan-15 10:33N 34°37' E 135°06'6 5.8
2017-Jan-15 09:30N 34°41' E 135°11'2 1.9
2017-Jan-15 08:33N 34°39' E 135°11'2 2.5
2017-Jan-15 07:33N 34°37' E 135°13'4 3.7
2017-Jan-15 06:30N 34°41' E 135°11'0 0.0
2017-Jan-15 05:30N 34°41' E 135°11'2 2.3
2017-Jan-15 04:33N 34°39' E 135°11'2 2.0
2017-Jan-15 03:33N 34°37' E 135°13'4 3.4
2017-Jan-15 02:29N 34°41' E 135°11'0 0.0
2017-Jan-15 01:29N 34°41' E 135°11'0 0.0
2017-Jan-15 00:29N 34°41' E 135°11'0 0.0
2017-Jan-14 23:17N 34°41' E 135°11'0 0.0
2017-Jan-14 22:29N 34°41' E 135°11'0 0.0
2017-Jan-14 21:29N 34°41' E 135°11'0 0.0
2017-Jan-14 20:29N 34°41' E 135°11'0 0.0
2017-Jan-14 19:29N 34°41' E 135°11'0 0.0
2017-Jan-14 18:29N 34°41' E 135°11'0 0.0
2017-Jan-14 17:29N 34°41' E 135°11'0 0.0
2017-Jan-14 16:29N 34°41' E 135°11'0 0.0
2017-Jan-14 15:29N 34°41' E 135°11'0 0.0
2017-Jan-14 14:29N 34°41' E 135°11'0 0.0
2017-Jan-14 13:29N 34°41' E 135°11'  
Track history (hours):
 
Tides and Currents Weather Stations Pressure Air Temp Water Temp Dewpoint Dewpoint Depression Visibility Wind Speed Wind Dir Waves Ship Positions

Luminous Kobe-2

Last reported at 2017-Jan-24 12:32 UTC. Time now 2017-Jan-24 13:15 UTC.
Position N 34°41' E 135°11'.

Length 105 m; draft 4.5 m.

Type: Passenger vessel. MMSI: 431000469.

Date/timePositionNaut miles runAvg speedWind from/ knotsBaromVisibWave heightAir tempDewpointWater temp
2017-Jan-24 12:32N 34°41' E 135°11'6 6.2
2017-Jan-24 11:33N 34°36' E 135°07'1 1.0
2017-Jan-24 10:33N 34°37' E 135°07'5 5.3
2017-Jan-24 09:33N 34°41' E 135°11'5 4.6
2017-Jan-24 08:33N 34°37' E 135°08'5 4.5
2017-Jan-24 07:32N 34°41' E 135°11'0 0.0
2017-Jan-24 06:26N 34°41' E 135°11'0 0.0
2017-Jan-24 05:32N 34°41' E 135°11'2 2.5
2017-Jan-24 04:33N 34°38' E 135°11'2 2.2
2017-Jan-24 03:33N 34°37' E 135°13'4 3.8
2017-Jan-24 02:33N 34°41' E 135°11'0 0.0
2017-Jan-24 01:33N 34°41' E 135°11'0 0.0
2017-Jan-24 00:33N 34°41' E 135°11'0 0.0
2017-Jan-23 23:33N 34°41' E 135°11'0 0.0
2017-Jan-23 22:33N 34°41' E 135°11'0 0.0
2017-Jan-23 21:27N 34°41' E 135°11'0 0.0
2017-Jan-23 20:27N 34°41' E 135°11'0 0.0
2017-Jan-23 19:33N 34°41' E 135°11'0 0.0
2017-Jan-23 18:33N 34°41' E 135°11'0 0.0
2017-Jan-23 17:33N 34°41' E 135°11'0 0.0
2017-Jan-23 16:27N 34°41' E 135°11'0 0.0
2017-Jan-23 15:33N 34°41' E 135°11'0 0.0
2017-Jan-23 14:33N 34°41' E 135°11'0 0.0
2017-Jan-23 13:33N 34°41' E 135°11'0 0.0
2017-Jan-23 12:33N 34°41' E 135°11'6 6.1
2017-Jan-23 11:33N 34°36' E 135°07'1 1.4
2017-Jan-23 10:33N 34°37' E 135°06'6 6.0
2017-Jan-23 09:33N 34°41' E 135°11'5 4.7
2017-Jan-23 08:33N 34°37' E 135°08'5 4.0
2017-Jan-23 07:22N 34°41' E 135°11'0 0.0
2017-Jan-23 06:28N 34°41' E 135°11'0 0.0
2017-Jan-23 05:28N 34°41' E 135°11'2 2.5
2017-Jan-23 04:33N 34°39' E 135°11'3 2.5
2017-Jan-23 03:34N 34°37' E 135°13'4 3.8
2017-Jan-23 02:24N 34°41' E 135°11'0 0.0
2017-Jan-23 01:30N 34°41' E 135°11'0 0.0
2017-Jan-23 00:30N 34°41' E 135°11'0 0.0
2017-Jan-22 23:30N 34°41' E 135°11'0 0.0
2017-Jan-22 22:30N 34°41' E 135°11'0 0.0
2017-Jan-22 21:30N 34°41' E 135°11'0 0.0
2017-Jan-22 20:18N 34°41' E 135°11'0 0.0
2017-Jan-22 19:30N 34°41' E 135°11'0 0.0
2017-Jan-22 18:24N 34°41' E 135°11'0 0.0
2017-Jan-22 17:30N 34°41' E 135°11'0 0.0
2017-Jan-22 16:30N 34°41' E 135°11'0 0.0
2017-Jan-22 15:30N 34°41' E 135°11'0 0.0
2017-Jan-22 14:30N 34°41' E 135°11'0 0.0
2017-Jan-22 13:24N 34°41' E 135°11'0 0.0
2017-Jan-22 12:30N 34°41' E 135°11'6 6.2
2017-Jan-22 11:33N 34°36' E 135°07'1 1.1
2017-Jan-22 10:33N 34°37' E 135°06'6 5.8
2017-Jan-22 09:30N 34°41' E 135°11'2 1.8
2017-Jan-22 08:33N 34°39' E 135°11'3 2.6
2017-Jan-22 07:33N 34°37' E 135°13'4 3.7
2017-Jan-22 06:29N 34°41' E 135°11'0 0.0
2017-Jan-22 05:29N 34°41' E 135°11'2 1.9
2017-Jan-22 04:33N 34°39' E 135°11'3 2.8
2017-Jan-22 03:33N 34°37' E 135°13'4 4.2
2017-Jan-22 02:31N 34°41' E 135°11'0 0.0
2017-Jan-22 01:25N 34°41' E 135°11'0 0.0
2017-Jan-22 00:31N 34°41' E 135°11'0 0.0
2017-Jan-21 23:31N 34°41' E 135°11'0 0.0
2017-Jan-21 22:25N 34°41' E 135°11'0 0.0
2017-Jan-21 21:31N 34°41' E 135°11'0 0.0
2017-Jan-21 20:31N 34°41' E 135°11'0 0.0
2017-Jan-21 19:31N 34°41' E 135°11'0 0.0
2017-Jan-21 18:31N 34°41' E 135°11'0 0.0
2017-Jan-21 17:31N 34°41' E 135°11'0 0.0
2017-Jan-21 16:19N 34°41' E 135°11'0 0.0
2017-Jan-21 15:31N 34°41' E 135°11'0 0.0
2017-Jan-21 14:31N 34°41' E 135°11'0 0.0
2017-Jan-21 13:31N 34°41' E 135°11'0 0.0
2017-Jan-21 12:31N 34°41' E 135°11'6 5.9
2017-Jan-21 11:33N 34°36' E 135°08'1 1.2
2017-Jan-21 10:33N 34°37' E 135°06'6 5.8
2017-Jan-21 09:31N 34°41' E 135°11'2 2.0
2017-Jan-21 08:33N 34°39' E 135°11'2 2.0
2017-Jan-21 07:33N 34°37' E 135°13'4 3.6
2017-Jan-21 06:32N 34°41' E 135°11'0 0.0
2017-Jan-21 05:32N 34°41' E 135°11'2 2.2
2017-Jan-21 04:33N 34°39' E 135°11'2 2.2
2017-Jan-21 03:33N 34°37' E 135°13'4 3.7
2017-Jan-21 02:31N 34°41' E 135°11'0 0.0
2017-Jan-21 01:31N 34°41' E 135°11'0 0.0
2017-Jan-21 00:31N 34°41' E 135°11'0 0.0
2017-Jan-20 23:31N 34°41' E 135°11'0 0.0
2017-Jan-20 22:31N 34°41' E 135°11'0 0.0
2017-Jan-20 21:31N 34°41' E 135°11'0 0.0
2017-Jan-20 20:31N 34°41' E 135°11'0 0.0
2017-Jan-20 19:31N 34°41' E 135°11'0 0.0
2017-Jan-20 18:31N 34°41' E 135°11'0 0.0
2017-Jan-20 17:25N 34°41' E 135°11'0 0.0
2017-Jan-20 16:31N 34°41' E 135°11'0 0.0
2017-Jan-20 15:31N 34°41' E 135°11'0 0.0
2017-Jan-20 14:31N 34°41' E 135°11'0 0.0
2017-Jan-20 13:25N 34°41' E 135°11'0 0.0
2017-Jan-20 12:25N 34°41' E 135°11'5 6.0
2017-Jan-20 11:33N 34°36' E 135°08'1 1.1
2017-Jan-20 10:33N 34°37' E 135°07'6 5.1
2017-Jan-20 09:28N 34°41' E 135°11'5 5.4
2017-Jan-20 08:33N 34°37' E 135°08'5 4.3
2017-Jan-20 07:26N 34°41' E 135°11'0 0.0
2017-Jan-20 06:32N 34°41' E 135°11'0 0.0
2017-Jan-20 05:32N 34°41' E 135°11'2 2.4
2017-Jan-20 04:33N 34°38' E 135°11'2 1.9
2017-Jan-20 03:33N 34°37' E 135°13'4 3.5
2017-Jan-20 02:30N 34°41' E 135°11'0 0.0
2017-Jan-20 01:30N 34°41' E 135°11'0 0.0
2017-Jan-20 00:30N 34°41' E 135°11'0 0.0
2017-Jan-19 23:24N 34°41' E 135°11'0 0.0
2017-Jan-19 22:30N 34°41' E 135°11'0 0.0
2017-Jan-19 21:30N 34°41' E 135°11'0 0.0
2017-Jan-19 20:24N 34°41' E 135°11'0 0.0
2017-Jan-19 19:24N 34°41' E 135°11'0 0.0
2017-Jan-19 18:24N 34°41' E 135°11'0 0.0
2017-Jan-19 17:18N 34°41' E 135°11'0 0.0
2017-Jan-19 16:30N 34°41' E 135°11'0 0.0
2017-Jan-19 15:30N 34°41' E 135°11'0 0.0
2017-Jan-19 14:30N 34°41' E 135°11'0 0.0
2017-Jan-19 13:30N 34°41' E 135°11'0 0.0
2017-Jan-19 12:24N 34°41' E 135°11'7 7.8
2017-Jan-19 11:33N 34°36' E 135°06'2 1.8
2017-Jan-19 10:33N 34°37' E 135°08'5 4.5
2017-Jan-19 09:31N 34°41' E 135°11'5 4.8
2017-Jan-19 08:33N 34°37' E 135°08'5 4.1
2017-Jan-19 07:26N 34°41' E 135°11'0 0.0
2017-Jan-19 06:32N 34°41' E 135°11'0 0.0
2017-Jan-19 05:32N 34°41' E 135°11'2 2.3
2017-Jan-19 04:33N 34°39' E 135°11'2 2.1
2017-Jan-19 03:34N 34°37' E 135°13'4 3.4
2017-Jan-19 02:27N 34°41' E 135°11'0 0.0
2017-Jan-19 01:27N 34°41' E 135°11'0 0.0
2017-Jan-19 00:33N 34°41' E 135°11'0 0.0
2017-Jan-18 23:33N 34°41' E 135°11'0 0.0
2017-Jan-18 22:15N 34°41' E 135°11'0 0.0
2017-Jan-18 21:27N 34°41' E 135°11'0 0.0
2017-Jan-18 20:33N 34°41' E 135°11'0 0.0
2017-Jan-18 19:27N 34°41' E 135°11'0 0.0
2017-Jan-18 18:27N 34°41' E 135°11'0 0.0
2017-Jan-18 17:21N 34°41' E 135°11'0 0.0
2017-Jan-18 16:33N 34°41' E 135°11'0 0.0
2017-Jan-18 15:33N 34°41' E 135°11'0 0.0
2017-Jan-18 14:33N 34°41' E 135°11'0 0.0
2017-Jan-18 13:15N 34°41' E 135°11'0 0.0
2017-Jan-18 12:33N 34°41' E 135°11'6 5.9
2017-Jan-18 11:33N 34°36' E 135°07'1 1.2
2017-Jan-18 10:33N 34°37' E 135°06'6 5.9
2017-Jan-18 09:32N 34°41' E 135°11'5 4.7
2017-Jan-18 08:33N 34°37' E 135°08'5 4.5
2017-Jan-18 07:32N 34°41' E 135°11'0 0.0
2017-Jan-18 06:32N 34°41' E 135°11'0 0.0
2017-Jan-18 05:32N 34°41' E 135°11'2 2.3
2017-Jan-18 04:33N 34°39' E 135°11'2 2.2
2017-Jan-18 03:33N 34°37' E 135°13'4 3.7
2017-Jan-18 02:32N 34°41' E 135°11'0 0.0
2017-Jan-18 01:32N 34°41' E 135°11'0 0.0
2017-Jan-18 00:26N 34°41' E 135°11'0 0.0
2017-Jan-17 23:32N 34°41' E 135°11'0 0.0
2017-Jan-17 22:32N 34°41' E 135°11'0 0.0
2017-Jan-17 21:32N 34°41' E 135°11'0 0.0
2017-Jan-17 20:32N 34°41' E 135°11'0 0.0
2017-Jan-17 19:32N 34°41' E 135°11'0 0.0
2017-Jan-17 18:32N 34°41' E 135°11'0 0.0
2017-Jan-17 17:32N 34°41' E 135°11'0 0.0
2017-Jan-17 16:32N 34°41' E 135°11'0 0.0
2017-Jan-17 15:26N 34°41' E 135°11'0 0.0
2017-Jan-17 14:32N 34°41' E 135°11'0 0.0
2017-Jan-17 13:32N 34°41' E 135°11'0 0.0
2017-Jan-17 12:32N 34°41' E 135°11'6 5.6
2017-Jan-17 11:33N 34°36' E 135°08'2 1.7
2017-Jan-17 10:33N 34°37' E 135°06'6 5.7
2017-Jan-17 09:29N 34°41' E 135°11'5 5.1
2017-Jan-17 08:33N 34°37' E 135°08'5 4.7
2017-Jan-17 07:33N 34°41' E 135°11'0 0.0
2017-Jan-17 06:33N 34°41' E 135°11'0 0.0
2017-Jan-17 05:33N 34°41' E 135°11'2 2.1
2017-Jan-17 04:33N 34°39' E 135°11'2 2.1
2017-Jan-17 03:33N 34°37' E 135°13'4 3.6
2017-Jan-17 02:32N 34°41' E 135°11'0 0.0
2017-Jan-17 01:32N 34°41' E 135°11'0 0.0
2017-Jan-17 00:32N 34°41' E 135°11'0 0.0
2017-Jan-16 23:26N 34°41' E 135°11'0 0.0
2017-Jan-16 22:32N 34°41' E 135°11'0 0.0
2017-Jan-16 21:20N 34°41' E 135°11'0 0.0
2017-Jan-16 20:32N 34°41' E 135°11'0 0.0
2017-Jan-16 19:32N 34°41' E 135°11'0 0.0
2017-Jan-16 18:32N 34°41' E 135°11'0 0.0
2017-Jan-16 17:32N 34°41' E 135°11'0 0.0
2017-Jan-16 16:32N 34°41' E 135°11'0 0.0
2017-Jan-16 15:32N 34°41' E 135°11'0 0.0
2017-Jan-16 14:08N 34°41' E 135°11'0 0.0
2017-Jan-16 13:32N 34°41' E 135°11'0 0.0
2017-Jan-16 12:32N 34°41' E 135°11'6 6.6
2017-Jan-16 11:34N 34°36' E 135°07'1 1.1
2017-Jan-16 10:33N 34°37' E 135°06'6 5.9
2017-Jan-16 09:33N 34°41' E 135°11'5 4.6
2017-Jan-16 08:33N 34°37' E 135°08'5 4.6
2017-Jan-16 07:33N 34°41' E 135°11'0 0.0
2017-Jan-16 06:27N 34°41' E 135°11'0 0.0
2017-Jan-16 05:27N 34°41' E 135°11'2 2.5
2017-Jan-16 04:33N 34°39' E 135°11'2 2.3
2017-Jan-16 03:33N 34°37' E 135°13'4 3.7
2017-Jan-16 02:29N 34°41' E 135°11'0 0.0
2017-Jan-16 01:29N 34°41' E 135°11'0 0.0
2017-Jan-16 00:29N 34°41' E 135°11'0 0.0
2017-Jan-15 23:29N 34°41' E 135°11'0 0.0
2017-Jan-15 22:11N 34°41' E 135°11'0 0.0
2017-Jan-15 21:29N 34°41' E 135°11'0 0.0
2017-Jan-15 20:29N 34°41' E 135°11'0 0.0
2017-Jan-15 19:29N 34°41' E 135°11'0 0.0
2017-Jan-15 18:29N 34°41' E 135°11'0 0.0
2017-Jan-15 17:29N 34°41' E 135°11'0 0.0
2017-Jan-15 16:29N 34°41' E 135°11'0 0.0
2017-Jan-15 15:23N 34°41' E 135°11'0 0.0
2017-Jan-15 14:29N 34°41' E 135°11'0 0.0
2017-Jan-15 13:17N 34°41' E 135°11'0 0.0
2017-Jan-15 12:23N 34°41' E 135°11'6 6.9
2017-Jan-15 11:34N 34°36' E 135°07'1 1.3
2017-Jan-15 10:33N 34°37' E 135°06'6 5.8
2017-Jan-15 09:30N 34°41' E 135°11'2 1.9
2017-Jan-15 08:33N 34°39' E 135°11'2 2.5
2017-Jan-15 07:33N 34°37' E 135°13'4 3.7
2017-Jan-15 06:30N 34°41' E 135°11'0 0.0
2017-Jan-15 05:30N 34°41' E 135°11'2 2.3
2017-Jan-15 04:33N 34°39' E 135°11'2 2.0
2017-Jan-15 03:33N 34°37' E 135°13'4 3.4
2017-Jan-15 02:29N 34°41' E 135°11'0 0.0
2017-Jan-15 01:29N 34°41' E 135°11'0 0.0
2017-Jan-15 00:29N 34°41' E 135°11'0 0.0
2017-Jan-14 23:17N 34°41' E 135°11'0 0.0
2017-Jan-14 22:29N 34°41' E 135°11'0 0.0
2017-Jan-14 21:29N 34°41' E 135°11'0 0.0
2017-Jan-14 20:29N 34°41' E 135°11'0 0.0
2017-Jan-14 19:29N 34°41' E 135°11'0 0.0
2017-Jan-14 18:29N 34°41' E 135°11'0 0.0
2017-Jan-14 17:29N 34°41' E 135°11'0 0.0
2017-Jan-14 16:29N 34°41' E 135°11'0 0.0
2017-Jan-14 15:29N 34°41' E 135°11'0 0.0
2017-Jan-14 14:29N 34°41' E 135°11'0 0.0
2017-Jan-14 13:29N 34°41' E 135°11'  

Dump ship's entire track history